createdAt,value
2022-09-07T06:05:02.382Z,16.75
2022-09-07T06:06:02.363Z,16.71
2022-09-07T06:07:21.127Z,16.75
2022-09-07T06:08:03.301Z,16.77
2022-09-07T06:09:02.278Z,16.75
2022-09-07T06:11:03.245Z,16.80
2022-09-07T06:12:02.251Z,16.78
2022-09-07T06:13:02.253Z,16.78
2022-09-07T06:14:02.212Z,16.81
2022-09-07T06:15:02.207Z,16.85
2022-09-07T06:16:02.195Z,16.83
2022-09-07T06:17:02.194Z,16.85
2022-09-07T06:18:06.026Z,16.83
2022-09-07T06:19:03.865Z,16.86
2022-09-07T06:20:02.136Z,16.86
2022-09-07T06:21:02.121Z,16.88
2022-09-07T06:22:02.109Z,16.86
2022-09-07T06:23:02.099Z,16.85
2022-09-07T06:24:02.346Z,16.88
2022-09-07T06:25:02.574Z,16.93
2022-09-07T06:26:02.087Z,16.92
2022-09-07T06:27:02.075Z,16.92
2022-09-07T06:28:02.041Z,16.86
2022-09-07T06:29:02.139Z,16.78
2022-09-07T06:30:02.051Z,16.80
2022-09-07T06:31:02.369Z,16.83
2022-09-07T06:33:02.971Z,16.86
2022-09-07T06:34:01.977Z,16.88
2022-09-07T06:35:02.024Z,16.86
2022-09-07T06:36:01.931Z,16.86
2022-09-07T06:37:01.905Z,16.83
2022-09-07T06:38:01.917Z,16.73
2022-09-07T06:39:02.036Z,16.74
2022-09-07T06:40:01.946Z,16.70
2022-09-07T06:42:03.118Z,16.67
2022-09-07T06:43:01.865Z,16.65
2022-09-07T06:44:01.869Z,16.63
2022-09-07T06:45:01.828Z,16.67
2022-09-07T06:47:03.118Z,16.65
2022-09-07T06:48:01.762Z,16.62
2022-09-07T06:49:01.773Z,16.58
2022-09-07T06:50:01.808Z,16.55
2022-09-07T06:51:01.767Z,16.45
2022-09-07T06:52:01.722Z,16.44
2022-09-07T06:55:02.696Z,16.42
2022-09-07T06:56:05.440Z,16.31
2022-09-07T06:57:01.659Z,16.23
2022-09-07T06:58:01.632Z,16.12
2022-09-07T06:59:01.623Z,16.07
2022-09-07T07:00:01.642Z,15.96
2022-09-07T07:01:01.650Z,15.94
2022-09-07T07:02:01.617Z,15.88
2022-09-07T07:03:01.698Z,15.88
2022-09-07T07:04:01.559Z,15.79
2022-09-07T07:05:01.564Z,15.81
2022-09-07T07:06:01.539Z,15.81
2022-09-07T07:07:01.510Z,15.78
2022-09-07T07:08:01.808Z,15.75
2022-09-07T07:09:01.542Z,15.68
2022-09-07T07:10:02.245Z,15.70
2022-09-07T07:11:02.426Z,15.66
2022-09-07T07:12:01.445Z,15.67
2022-09-07T07:13:01.522Z,15.63
2022-09-07T07:14:01.490Z,15.57
2022-09-07T07:15:01.439Z,15.49
2022-09-07T07:16:01.413Z,15.41
2022-09-07T07:17:01.400Z,15.41
2022-09-07T07:18:13.689Z,15.43
2022-09-07T07:19:02.356Z,15.45
2022-09-07T07:20:01.385Z,15.52
2022-09-07T07:21:02.051Z,15.56
2022-09-07T07:22:14.260Z,15.57
2022-09-07T07:23:02.331Z,15.57
2022-09-07T07:24:05.017Z,15.59
2022-09-07T07:25:02.368Z,15.52
2022-09-07T07:26:01.293Z,15.46
2022-09-07T07:27:01.250Z,15.42
2022-09-07T07:29:03.444Z,15.38
2022-09-07T07:30:01.238Z,15.36
2022-09-07T07:31:03.895Z,15.36
2022-09-07T07:32:01.196Z,15.33
2022-09-07T07:33:01.559Z,15.27
2022-09-07T07:34:01.508Z,15.26
2022-09-07T07:35:03.511Z,15.24
2022-09-07T07:36:01.144Z,15.26
2022-09-07T07:37:01.195Z,15.35
2022-09-07T07:39:03.067Z,15.38
2022-09-07T07:40:18.515Z,15.35
2022-09-07T07:42:03.449Z,15.35
2022-09-07T07:43:01.834Z,15.39
2022-09-07T07:44:01.045Z,15.31
2022-09-07T07:46:05.456Z,15.26
2022-09-07T07:47:01.075Z,15.24
2022-09-07T07:48:00.985Z,15.26
2022-09-07T07:49:01.031Z,15.35
2022-09-07T07:51:06.449Z,15.28
2022-09-07T07:54:01.944Z,15.31
2022-09-07T07:55:00.984Z,15.36
2022-09-07T07:56:00.897Z,15.43
2022-09-07T07:57:00.903Z,15.52
2022-09-07T07:58:00.858Z,15.56
2022-09-07T07:59:00.884Z,15.49
2022-09-07T08:00:00.836Z,15.42
2022-09-07T08:01:00.902Z,15.42
2022-09-07T08:02:00.903Z,15.46
2022-09-07T08:03:01.474Z,15.51
2022-09-07T08:04:00.820Z,15.46
2022-09-07T08:05:00.761Z,15.36
2022-09-07T08:06:00.740Z,15.33
2022-09-07T08:07:01.427Z,15.38
2022-09-07T08:08:00.969Z,15.43
2022-09-07T08:09:00.711Z,15.42
2022-09-07T08:10:00.706Z,15.33
2022-09-07T08:11:00.721Z,15.33
2022-09-07T08:12:00.684Z,15.30
2022-09-07T08:13:00.660Z,15.33
2022-09-07T08:14:00.642Z,15.33
2022-09-07T08:15:00.668Z,15.38
2022-09-07T08:16:00.659Z,15.35
2022-09-07T08:17:00.615Z,15.36
2022-09-07T08:18:00.884Z,15.27
2022-09-07T08:19:00.563Z,15.24
2022-09-07T08:20:00.631Z,15.21
2022-09-07T08:21:00.549Z,15.19
2022-09-07T08:22:00.599Z,15.19
2022-09-07T08:23:00.516Z,15.19
2022-09-07T08:24:00.822Z,15.23
2022-09-07T08:25:00.915Z,15.28
2022-09-07T08:26:00.491Z,15.21
2022-09-07T08:27:00.490Z,15.17
2022-09-07T08:28:00.488Z,15.20
2022-09-07T08:29:00.459Z,15.21
2022-09-07T08:30:00.469Z,15.23
2022-09-07T08:31:00.417Z,15.26
2022-09-07T08:32:00.484Z,15.20
2022-09-07T08:33:00.443Z,15.13
2022-09-07T08:34:00.433Z,15.12
2022-09-07T08:35:00.518Z,15.06
2022-09-07T08:36:00.375Z,15.01
2022-09-07T08:37:01.296Z,15.03
2022-09-07T08:38:00.357Z,15.08
2022-09-07T08:39:00.527Z,15.09
2022-09-07T08:40:00.369Z,15.03
2022-09-07T08:41:00.602Z,15.06
2022-09-07T08:42:00.291Z,15.13
2022-09-07T08:43:01.225Z,15.20
2022-09-07T08:44:00.546Z,15.24
2022-09-07T08:45:00.417Z,15.24
2022-09-07T08:46:00.299Z,15.24
2022-09-07T08:47:00.322Z,15.27
2022-09-07T08:48:00.281Z,15.30
2022-09-07T08:49:00.275Z,15.33
2022-09-07T08:50:00.406Z,15.35
2022-09-07T08:51:00.157Z,15.39
2022-09-07T08:52:00.142Z,15.42
2022-09-07T08:53:00.139Z,15.42
2022-09-07T08:54:00.142Z,15.43
2022-09-07T08:55:00.215Z,15.42
2022-09-07T08:56:00.112Z,15.41
2022-09-07T08:58:01.063Z,15.38
2022-09-07T08:59:00.110Z,15.30
2022-09-07T09:00:00.061Z,15.30
2022-09-07T09:04:17.566Z,15.49
2022-09-07T09:05:17.686Z,15.49
2022-09-07T09:06:01.022Z,15.52
2022-09-07T09:07:00.244Z,15.51
2022-09-07T09:07:59.936Z,15.51
2022-09-07T09:08:59.934Z,15.48
2022-09-07T09:09:59.952Z,15.51
2022-09-07T09:11:00.164Z,15.46
2022-09-07T09:11:59.878Z,15.48
2022-09-07T09:12:59.884Z,15.56
2022-09-07T09:13:59.863Z,15.59
2022-09-07T09:14:59.879Z,15.60
2022-09-07T09:15:59.881Z,15.60
2022-09-07T09:16:59.819Z,15.59
2022-09-07T09:17:59.811Z,15.61
2022-09-07T09:18:59.827Z,15.60
2022-09-07T09:19:59.812Z,15.61
2022-09-07T09:20:59.768Z,15.61
2022-09-07T09:21:59.740Z,15.63
2022-09-07T09:22:59.730Z,15.64
2022-09-07T09:23:59.766Z,15.68
2022-09-07T09:24:59.733Z,15.74
2022-09-07T09:25:59.705Z,15.72
2022-09-07T09:26:59.697Z,15.76
2022-09-07T09:27:59.668Z,15.85
2022-09-07T09:28:59.704Z,16.00
2022-09-07T09:29:59.693Z,16.12
2022-09-07T09:30:59.821Z,16.27
2022-09-07T09:31:59.623Z,16.30
2022-09-07T09:32:59.608Z,16.23
2022-09-07T09:33:59.645Z,16.27
2022-09-07T09:34:59.628Z,16.42
2022-09-07T09:35:59.577Z,16.50
2022-09-07T09:36:59.561Z,16.59
2022-09-07T09:37:59.617Z,16.70
2022-09-07T09:38:59.540Z,16.68
2022-09-07T09:40:02.845Z,16.59
2022-09-07T09:40:59.515Z,16.53
2022-09-07T09:41:59.741Z,16.50
2022-09-07T09:42:59.518Z,16.55
2022-09-07T09:43:59.456Z,16.68
2022-09-07T09:44:59.462Z,16.85
2022-09-07T09:46:14.875Z,16.83
2022-09-07T09:48:00.477Z,16.96
2022-09-07T09:48:59.427Z,16.96
2022-09-07T09:49:59.445Z,17.03
2022-09-07T09:53:00.358Z,17.20
2022-09-07T09:53:59.340Z,17.29
2022-09-07T09:55:17.214Z,17.35
2022-09-07T09:56:00.435Z,17.33
2022-09-07T09:56:59.387Z,17.30
2022-09-07T09:59:56.936Z,17.62
2022-09-07T10:00:05.591Z,17.70
2022-09-07T10:04:01.403Z,17.73
2022-09-07T10:04:59.202Z,17.70
2022-09-07T10:05:59.233Z,17.74
2022-09-07T10:06:59.173Z,17.87
2022-09-07T10:07:59.161Z,17.89
2022-09-07T10:08:59.391Z,17.94
2022-09-07T10:09:59.119Z,18.17
2022-09-07T10:10:59.100Z,18.34
2022-09-07T10:12:07.155Z,18.34
2022-09-07T10:13:00.109Z,18.40
2022-09-07T10:13:59.113Z,18.50
2022-09-07T10:14:59.067Z,18.72
2022-09-07T10:15:59.124Z,18.83
2022-09-07T10:16:59.065Z,18.86
2022-09-07T10:17:59.036Z,18.72
2022-09-07T10:18:59.134Z,18.79
2022-09-07T10:20:00.702Z,18.55
2022-09-07T10:20:59.342Z,18.42
2022-09-07T10:21:58.968Z,18.36
2022-09-07T10:22:59.041Z,18.39
2022-09-07T10:23:58.944Z,18.55
2022-09-07T10:24:59.005Z,18.64
2022-09-07T10:25:58.904Z,18.80
2022-09-07T10:26:58.903Z,18.90
2022-09-07T10:27:58.901Z,18.90
2022-09-07T10:29:06.791Z,18.68
2022-09-07T10:29:59.874Z,18.76
2022-09-07T10:30:59.058Z,18.92
2022-09-07T10:31:58.825Z,18.94
2022-09-07T10:32:58.841Z,18.87
2022-09-07T10:34:59.805Z,19.08
2022-09-07T10:35:58.813Z,19.14
2022-09-07T10:36:58.779Z,19.18
2022-09-07T10:37:58.790Z,19.13
2022-09-07T10:38:58.787Z,19.01
2022-09-07T10:40:00.584Z,18.95
2022-09-07T10:40:58.757Z,18.91
2022-09-07T10:41:58.763Z,18.87
2022-09-07T10:43:59.745Z,18.95
2022-09-07T10:44:58.697Z,19.01
2022-09-07T10:45:58.728Z,19.06
2022-09-07T10:46:58.809Z,19.11
2022-09-07T10:47:58.636Z,19.20
2022-09-07T10:48:58.707Z,19.14
2022-09-07T10:51:05.039Z,19.40
2022-09-07T10:51:59.567Z,19.69
2022-09-07T10:52:58.593Z,19.84
2022-09-07T10:54:59.581Z,19.88
2022-09-07T10:55:58.525Z,19.87
2022-09-07T10:56:58.850Z,19.78
2022-09-07T10:57:59.007Z,19.90
2022-09-07T10:59:02.142Z,19.90
2022-09-07T11:00:14.065Z,19.93
2022-09-07T11:00:59.462Z,20.09
2022-09-07T11:01:58.471Z,20.25
2022-09-07T11:03:58.526Z,20.62
2022-09-07T11:04:58.474Z,20.74
2022-09-07T11:05:58.388Z,20.86
2022-09-07T11:06:58.385Z,21.02
2022-09-07T11:07:58.391Z,21.08
2022-09-07T11:09:59.346Z,21.19
2022-09-07T11:10:58.336Z,21.46
2022-09-07T11:12:02.301Z,21.63
2022-09-07T11:12:58.302Z,21.61
2022-09-07T11:14:12.407Z,21.64
2022-09-07T11:14:59.286Z,21.67
2022-09-07T11:15:58.374Z,21.76
2022-09-07T11:16:58.284Z,21.90
2022-09-07T11:17:58.301Z,21.78
2022-09-07T11:19:35.094Z,21.75
2022-09-07T11:20:03.143Z,21.88
2022-09-07T11:20:58.195Z,21.98
2022-09-07T11:21:58.205Z,21.99
2022-09-07T11:22:58.189Z,22.10
2022-09-07T11:23:58.218Z,22.10
2022-09-07T11:25:59.139Z,22.19
2022-09-07T11:26:58.156Z,22.22
2022-09-07T11:27:58.107Z,22.02
2022-09-07T11:29:59.112Z,22.27
2022-09-07T11:31:00.318Z,22.34
2022-09-07T11:31:58.098Z,22.38
2022-09-07T11:32:58.068Z,22.38
2022-09-07T11:34:59.015Z,22.23
2022-09-07T11:35:58.017Z,22.13
2022-09-07T11:36:57.988Z,22.20
2022-09-07T11:37:58.006Z,22.28
2022-09-07T11:38:57.995Z,22.31
2022-09-07T11:39:58.023Z,22.43
2022-09-07T11:40:57.991Z,22.46
2022-09-07T11:41:58.102Z,22.44
2022-09-07T11:42:58.609Z,22.39
2022-09-07T11:43:57.918Z,22.53
2022-09-07T11:44:57.894Z,22.62
2022-09-07T11:45:57.953Z,22.69
2022-09-07T11:46:57.877Z,22.62
2022-09-07T11:47:57.871Z,22.53
2022-09-07T11:48:59.583Z,22.59
2022-09-07T11:49:59.535Z,22.65
2022-09-07T11:50:57.820Z,22.64
2022-09-07T11:51:57.806Z,22.72
2022-09-07T11:52:58.472Z,22.80
2022-09-07T11:53:57.806Z,22.92
2022-09-07T11:54:58.460Z,23.08
2022-09-07T11:55:57.760Z,23.09
2022-09-07T11:56:57.749Z,23.19
2022-09-07T11:57:57.720Z,23.20
2022-09-07T11:58:57.743Z,23.15
2022-09-07T11:59:57.761Z,23.04
2022-09-07T12:00:57.708Z,22.93
2022-09-07T12:01:57.684Z,22.97
2022-09-07T12:03:00.563Z,23.04
2022-09-07T12:03:58.208Z,23.12
2022-09-07T12:04:57.767Z,23.34
2022-09-07T12:05:57.625Z,23.38
2022-09-07T12:06:57.609Z,23.27
2022-09-07T12:07:57.600Z,23.47
2022-09-07T12:08:57.600Z,23.31
2022-09-07T12:09:57.637Z,23.22
2022-09-07T12:10:57.563Z,23.43
2022-09-07T12:11:57.578Z,23.77
2022-09-07T12:12:57.544Z,24.10
2022-09-07T12:13:57.510Z,24.34
2022-09-07T12:14:57.563Z,24.59
2022-09-07T12:15:57.538Z,24.76
2022-09-07T12:16:57.497Z,24.77
2022-09-07T12:17:57.492Z,24.60
2022-09-07T12:18:57.457Z,24.35
2022-09-07T12:19:57.548Z,24.39
2022-09-07T12:20:57.444Z,24.52
2022-09-07T12:21:57.436Z,24.56
2022-09-07T12:23:00.900Z,24.90
2022-09-07T12:23:58.435Z,25.28
2022-09-07T12:24:57.396Z,25.47
2022-09-07T12:25:57.395Z,25.59
2022-09-07T12:26:57.358Z,25.62
2022-09-07T12:27:57.344Z,25.43
2022-09-07T12:28:57.335Z,25.75
2022-09-07T12:29:57.313Z,26.09
2022-09-07T12:30:57.431Z,25.93
2022-09-07T12:31:59.306Z,25.74
2022-09-07T17:57:29.041Z,22.57
2022-09-07T17:58:29.016Z,22.49
2022-09-07T18:00:29.991Z,22.38
2022-09-07T18:01:28.991Z,22.38
2022-09-07T18:02:28.951Z,22.32
2022-09-07T18:03:34.733Z,22.27
2022-09-07T18:04:30.078Z,22.23
2022-09-07T18:05:29.180Z,22.12
2022-09-07T18:06:28.920Z,22.07
2022-09-07T18:07:29.141Z,22.07
2022-09-07T18:08:28.957Z,22.02
2022-09-07T18:09:28.882Z,22.01
2022-09-07T18:11:44.990Z,22.09
2022-09-07T18:11:46.630Z,22.12
2022-09-07T18:12:29.826Z,22.10
2022-09-07T18:13:36.122Z,22.17
2022-09-07T18:14:29.814Z,22.20
2022-09-07T18:15:28.778Z,22.23
2022-09-07T18:16:28.923Z,22.28
2022-09-07T18:17:30.462Z,22.27
2022-09-07T18:18:29.661Z,22.25
2022-09-07T18:19:29.555Z,22.25
2022-09-07T18:20:28.775Z,22.25
2022-09-07T18:21:30.529Z,22.25
2022-09-07T18:22:28.718Z,22.19
2022-09-07T18:23:28.736Z,22.06
2022-09-07T18:24:28.671Z,22.01
2022-09-07T18:25:28.672Z,22.01
2022-09-07T18:26:28.657Z,22.02
2022-09-07T18:27:28.696Z,22.02
2022-09-07T18:29:32.862Z,22.10
2022-09-07T18:30:28.616Z,22.10
2022-09-07T18:31:28.710Z,22.07
2022-09-07T18:32:29.270Z,22.04
2022-09-07T18:33:28.587Z,22.04
2022-09-07T18:34:28.960Z,22.04
2022-09-07T18:35:28.576Z,22.06
2022-09-07T18:36:29.091Z,21.99
2022-09-07T18:37:31.481Z,21.90
2022-09-07T18:38:28.540Z,21.85
2022-09-07T18:39:28.556Z,21.85
2022-09-07T18:40:28.491Z,21.83
2022-09-07T18:41:28.455Z,21.81
2022-09-07T18:42:28.500Z,21.82
2022-09-07T18:43:28.582Z,21.81
2022-09-07T18:45:29.483Z,21.63
2022-09-07T18:46:28.444Z,21.61
2022-09-07T18:47:29.513Z,21.63
2022-09-07T18:48:28.413Z,21.64
2022-09-07T18:49:28.383Z,21.61
2022-09-07T18:50:28.337Z,21.63
2022-09-07T18:51:28.532Z,21.63
2022-09-07T18:53:29.387Z,21.63
2022-09-07T18:54:28.278Z,21.63
2022-09-07T18:55:28.333Z,21.63
2022-09-07T18:56:32.836Z,21.59
2022-09-07T18:57:28.634Z,21.60
2022-09-07T18:58:28.223Z,21.59
2022-09-07T18:59:29.839Z,21.50
2022-09-07T19:00:29.463Z,21.46
2022-09-07T19:01:28.347Z,21.50
2022-09-07T19:02:32.332Z,21.48
2022-09-07T19:03:28.173Z,21.48
2022-09-07T19:05:49.678Z,21.51
2022-09-07T19:05:50.010Z,21.53
2022-09-07T19:06:29.123Z,21.56
2022-09-07T19:07:30.016Z,21.54
2022-09-07T19:08:28.226Z,21.51
2022-09-07T19:09:28.360Z,21.50
2022-09-07T19:10:28.133Z,21.53
2022-09-07T19:11:28.080Z,21.53
2022-09-07T19:12:28.165Z,21.54
2022-09-07T19:13:28.154Z,21.53
2022-09-07T19:14:28.338Z,21.50
2022-09-07T19:15:28.035Z,21.46
2022-09-07T19:16:28.118Z,21.44
2022-09-07T19:17:28.016Z,21.42
2022-09-07T19:18:27.981Z,21.41
2022-09-07T19:19:31.912Z,21.39
2022-09-07T19:20:27.970Z,21.39
2022-09-07T19:21:27.936Z,21.41
2022-09-07T19:22:27.941Z,21.38
2022-09-07T19:23:27.922Z,21.36
2022-09-07T19:24:27.888Z,21.36
2022-09-07T19:25:28.631Z,21.36
2022-09-07T19:26:27.888Z,21.32
2022-09-07T19:27:28.262Z,21.29
2022-09-07T19:28:27.849Z,21.29
2022-09-07T19:29:27.938Z,21.27
2022-09-07T19:30:27.827Z,21.27
2022-09-07T19:31:27.860Z,21.26
